TAMU Turf Lab's Hourly Summary for Monday, July 9, 2018
Hour Temp
(f)
RH
(%)
Solar Rad.
(MJ/m2)
Rainfall
(in)
Wind
(mph)
7/9/2018 12:00 AM 76 86 0 0 4.76
7/9/2018 1:00 AM 75 88 0 0 4.5
7/9/2018 2:00 AM 75 89 0 0 4.11
7/9/2018 3:00 AM 74 90 0 0 0.74
7/9/2018 4:00 AM 74 91 0 0 0
7/9/2018 5:00 AM 74 92 0 0 0
7/9/2018 6:00 AM 74 92 0 0 0
7/9/2018 7:00 AM 75 92 0.02 0 0
7/9/2018 8:00 AM 75 91 0.22 0 0
7/9/2018 9:00 AM 76 85 0.46 0 0.01
7/9/2018 10:00 AM 77 80 0.61 0 0
7/9/2018 11:00 AM 80 76 0.87 0 0
7/9/2018 12:00 PM 82 65 1.72 0 1.54
7/9/2018 1:00 PM 73 65 0.39 0.26 8.24
7/9/2018 2:00 PM 73 87 0.77 0 2.9
7/9/2018 3:00 PM 74 81 0.58 0 0.61
7/9/2018 4:00 PM 76 79 0.58 0 0.17
7/9/2018 5:00 PM 76 80 0.41 0.01 5.2
7/9/2018 6:00 PM 76 84 0.51 0 2.77
7/9/2018 7:00 PM 77 80 0.47 0 3.59
7/9/2018 8:00 PM 77 80 0.26 0 0.2
7/9/2018 9:00 PM 76 83 0.04 0 0
7/9/2018 10:00 PM 76 86 0 0 2.25
7/9/2018 11:00 PM 75 89 0 0 3.24
Data Summary 75 83 7.91 0.27 1.87